Terminal Aerodrome Forecast
Issued by NWS

Home | Current Version | Previous Version | Text Only | Print | Product List | Glossary On
Versions: 1 2 3 4 5 6 7 8 9 10 11 12 13 14 15 16
262
FTUS44 KLIX 271720
TAFMSY
TAF
KMSY 271720Z 2718/2818 02007KT P6SM FEW030 BKN120 BKN200
     FM272100 VRB05KT P6SM BKN110
     FM281500 11008KT P6SM BKN070=

USA.gov is the U.S. government's official web portal to all federal, state and local government web resources and services.